Time;durP1;ratioP1;P1;durP2;ratioP2;P2;SDS_P1;SDS_P2;PMS_P1;PMS_P2;Temp;Humidity;BMP_temperature;BMP_pressure;BME280_temperature;BME280_humidity;BME280_pressure;Samples;Min_cycle;Max_cycle;Signal;HPM_P1;HPM_P2
2023/12/28 00:02:00;;;;;;;199.18;89.22;;;;;;;-0.84;92.89;100418.88;5069115;28;20040;-82
2023/12/28 00:04:46;;;;;;;179.20;80.47;;;;;;;-0.84;93.15;100410.22;5050377;28;20052;-84
2023/12/28 00:07:32;;;;;;;162.07;77.45;;;;;;;-0.86;93.17;100417.34;5069046;28;20465;-83
2023/12/28 00:10:17;;;;;;;165.10;80.68;;;;;;;-0.89;93.38;100420.19;5054403;28;20047;-82
2023/12/28 00:13:03;;;;;;;156.05;73.63;;;;;;;-0.90;93.54;100418.56;5055185;28;20040;-84
2023/12/28 00:15:48;;;;;;;184.68;80.47;;;;;;;-0.95;93.55;100405.88;5068027;28;20044;-83
2023/12/28 00:18:34;;;;;;;170.95;77.60;;;;;;;-0.95;93.36;100405.88;5052522;28;20044;-82
2023/12/28 00:21:19;;;;;;;159.82;73.45;;;;;;;-0.89;93.59;100415.81;5052596;28;20048;-82
2023/12/28 00:24:05;;;;;;;169.05;77.65;;;;;;;-0.90;93.43;100405.50;5066357;28;20449;-81
2023/12/28 00:26:51;;;;;;;171.82;81.30;;;;;;;-0.92;93.79;100403.00;5052132;28;20453;-83
2023/12/28 00:29:38;;;;;;;166.13;73.05;;;;;;;-0.97;93.05;100407.81;5052212;28;20400;-85
2023/12/28 00:32:24;;;;;;;169.40;77.78;;;;;;;-0.97;93.80;100415.63;5052294;28;20052;-83
2023/12/28 00:35:10;;;;;;;163.18;78.95;;;;;;;-1.01;94.01;100412.41;5051520;28;20047;-84
2023/12/28 00:37:55;;;;;;;184.98;85.25;;;;;;;-0.98;93.61;100414.78;5051165;28;20052;-85
2023/12/28 00:40:40;;;;;;;168.40;76.18;;;;;;;-1.01;93.65;100422.84;5051643;28;20048;-86
2023/12/28 00:43:26;;;;;;;180.80;81.68;;;;;;;-1.03;93.69;100416.13;5066856;28;20051;-83
2023/12/28 00:46:12;;;;;;;170.15;74.95;;;;;;;-1.06;93.79;100421.59;5066662;28;20040;-80
2023/12/28 00:48:57;;;;;;;134.73;63.63;;;;;;;-1.11;93.60;100424.56;5066374;28;20048;-81
2023/12/28 00:51:43;;;;;;;163.95;72.57;;;;;;;-1.18;93.94;100421.63;5052004;28;20052;-85
2023/12/28 00:54:28;;;;;;;142.65;63.47;;;;;;;-1.18;93.43;100421.63;5066724;28;20051;-83
2023/12/28 00:57:14;;;;;;;165.88;71.05;;;;;;;-1.18;93.25;100431.25;5068970;28;20077;-84
2023/12/28 01:00:00;;;;;;;150.88;63.53;;;;;;;-1.13;93.96;100423.03;5071438;28;20052;-82
2023/12/28 01:02:49;;;;;;;137.57;57.13;;;;;;;-1.22;93.30;100430.66;5068266;28;20044;-82
2023/12/28 01:05:35;;;;;;;136.27;55.78;;;;;;;-1.19;93.22;100424.38;5062378;28;20456;-84
2023/12/28 01:08:23;;;;;;;117.18;51.45;;;;;;;-1.23;93.14;100415.94;5068968;28;20048;-84
2023/12/28 01:11:08;;;;;;;98.00;47.50;;;;;;;-1.23;93.77;100420.34;5056885;28;20048;-85
2023/12/28 01:13:54;;;;;;;79.32;38.58;;;;;;;-1.29;93.84;100418.22;5060197;28;20059;-83
2023/12/28 01:16:39;;;;;;;75.45;36.90;;;;;;;-1.37;93.09;100415.44;5073439;28;20044;-87
2023/12/28 01:19:25;;;;;;;78.13;36.90;;;;;;;-1.39;92.86;100418.16;5071368;28;20067;-84
2023/12/28 01:22:11;;;;;;;92.47;41.63;;;;;;;-1.43;92.97;100421.97;5069419;28;20416;-85
2023/12/28 01:24:57;;;;;;;88.93;42.45;;;;;;;-1.38;93.33;100414.56;5069575;28;20044;-84
2023/12/28 01:27:44;;;;;;;100.38;43.75;;;;;;;-1.26;93.33;100421.41;5069192;28;20414;-84
2023/12/28 01:30:29;;;;;;;111.85;50.00;;;;;;;-1.31;93.35;100417.56;5084421;28;20453;-81
2023/12/28 01:33:18;;;;;;;119.82;51.08;;;;;;;-1.27;94.01;100413.72;5069099;28;20036;-87
2023/12/28 01:36:15;;;;;;;176.15;57.97;;;;;;;-1.22;94.38;100422.84;5071031;28;20465;-83
2023/12/28 01:39:01;;;;;;;211.80;71.38;;;;;;;-1.21;94.40;100416.66;5051118;28;20473;-82
2023/12/28 01:41:46;;;;;;;202.65;68.30;;;;;;;-1.17;94.20;100414.63;5063944;28;20400;-87
2023/12/28 01:44:32;;;;;;;235.27;73.80;;;;;;;-1.18;94.71;100420.81;5057419;28;20373;-83
2023/12/28 01:47:18;;;;;;;146.77;60.90;;;;;;;-1.20;94.74;100413.09;5064566;28;20457;-84
2023/12/28 01:50:06;;;;;;;132.70;56.85;;;;;;;-1.20;94.46;100405.28;5050238;28;20052;-87
2023/12/28 01:52:51;;;;;;;142.52;62.25;;;;;;;-1.23;94.41;100412.53;5050229;28;20047;-88
2023/12/28 01:55:37;;;;;;;111.78;51.60;;;;;;;-1.33;95.06;100417.66;5064522;28;20456;-81
2023/12/28 01:58:23;;;;;;;164.38;68.15;;;;;;;-1.49;94.39;100404.19;5050159;28;20400;-84
2023/12/28 02:01:10;;;;;;;128.65;55.65;;;;;;;-1.47;94.98;100403.13;5050440;28;20052;-82
2023/12/28 02:03:56;;;;;;;146.15;62.45;;;;;;;-1.47;94.66;100410.97;5046705;28;20048;-84
2023/12/28 02:06:42;;;;;;;212.98;90.43;;;;;;;-1.46;94.84;100407.38;5063674;28;20380;-83
2023/12/28 02:09:27;;;;;;;311.40;139.73;;;;;;;-1.46;94.66;100406.56;5063812;28;20048;-87
2023/12/28 02:12:12;;;;;;;415.00;191.68;;;;;;;-1.50;94.69;100403.38;5064160;28;20047;-83
2023/12/28 02:14:59;;;;;;;322.88;136.68;;;;;;;-1.50;94.79;100392.13;5050277;28;20044;-88
2023/12/28 02:18:03;;;;;;;330.55;139.98;;;;;;;-1.47;95.48;100400.53;5049390;28;20059;-88
2023/12/28 02:20:50;;;;;;;348.45;139.52;;;;;;;-1.46;94.82;100401.34;5064137;28;20372;-84
2023/12/28 02:23:35;;;;;;;341.33;141.35;;;;;;;-1.50;95.02;100394.72;5049560;28;20051;-84
2023/12/28 02:26:20;;;;;;;301.80;133.23;;;;;;;-1.44;95.34;100400.28;5050196;28;20365;-84
2023/12/28 02:29:08;;;;;;;258.75;115.22;;;;;;;-1.41;95.63;100394.81;5049558;28;20048;-84
2023/12/28 02:32:00;;;;;;;207.95;96.32;;;;;;;-1.47;95.46;100390.09;5049346;28;20044;-83
2023/12/28 02:34:47;;;;;;;171.13;69.75;;;;;;;-1.51;95.37;100401.69;5049446;28;20048;-82
2023/12/28 02:37:33;;;;;;;149.43;63.70;;;;;;;-1.46;95.26;100406.56;5049464;28;20465;-82
2023/12/28 02:40:19;;;;;;;129.73;56.88;;;;;;;-1.47;95.12;100402.31;5049178;28;20052;-84
2023/12/28 02:43:06;;;;;;;121.05;50.03;;;;;;;-1.52;95.08;100397.44;5077868;28;20453;-86
2023/12/28 02:45:52;;;;;;;116.45;49.15;;;;;;;-1.48;95.21;100398.84;5062457;28;20044;-83
2023/12/28 02:48:38;;;;;;;123.38;51.72;;;;;;;-1.48;94.66;100393.63;5049143;28;20427;-84
2023/12/28 02:51:23;;;;;;;125.82;59.53;;;;;;;-1.49;94.90;100405.03;5066726;28;20456;-84
2023/12/28 02:54:09;;;;;;;143.23;63.78;;;;;;;-1.51;95.00;100401.69;5067535;28;20457;-84
2023/12/28 02:56:54;;;;;;;140.13;56.92;;;;;;;-1.53;94.89;100400.19;5052985;28;20052;-85
2023/12/28 02:59:40;;;;;;;116.40;52.85;;;;;;;-1.53;94.94;100389.75;5052573;28;20392;-82
2023/12/28 03:02:25;;;;;;;121.47;52.55;;;;;;;-1.54;94.68;100394.13;5054577;28;20449;-83
2023/12/28 03:05:11;;;;;;;143.27;53.78;;;;;;;-1.54;95.30;100388.91;5050241;28;20459;-81
2023/12/28 03:07:57;;;;;;;189.50;57.58;;;;;;;-1.46;95.06;100383.91;5062021;28;20445;-83
2023/12/28 03:10:42;;;;;;;253.30;59.20;;;;;;;-1.49;95.18;100371.13;5062599;28;20477;-83
2023/12/28 03:13:27;;;;;;;227.43;58.78;;;;;;;-1.49;95.02;100375.53;5068200;28;20449;-82
2023/12/28 03:16:14;;;;;;;239.65;57.42;;;;;;;-1.45;94.97;100367.31;5053595;28;20469;-82
2023/12/28 03:18:59;;;;;;;192.75;53.75;;;;;;;-1.47;95.57;100364.03;5052004;28;20048;-83
2023/12/28 03:21:44;;;;;;;195.95;53.17;;;;;;;-1.50;95.39;100359.06;5052256;28;20477;-83
2023/12/28 03:24:30;;;;;;;228.88;58.80;;;;;;;-1.48;95.32;100361.53;5067332;28;20052;-83
2023/12/28 03:27:15;;;;;;;200.00;51.65;;;;;;;-1.46;95.13;100365.66;5066103;28;20453;-84
2023/12/28 03:30:01;;;;;;;161.82;52.33;;;;;;;-1.41;96.00;100357.47;5066249;28;20052;-83
2023/12/28 03:32:47;;;;;;;160.35;57.85;;;;;;;-1.37;95.11;100355.47;5052579;28;20480;-81
2023/12/28 03:35:32;;;;;;;199.88;68.43;;;;;;;-1.38;95.41;100359.00;5052964;28;20052;-84
2023/12/28 03:38:18;;;;;;;155.88;55.25;;;;;;;-1.41;95.35;100353.09;5051769;28;20040;-81
2023/12/28 03:41:04;;;;;;;138.52;52.17;;;;;;;-1.41;95.32;100345.28;5051827;28;20039;-83
2023/12/28 03:43:49;;;;;;;144.15;51.90;;;;;;;-1.50;95.39;100346.03;5066090;28;20044;-83
2023/12/28 03:46:35;;;;;;;126.32;49.70;;;;;;;-1.59;95.36;100336.34;5052202;28;20472;-82
2023/12/28 03:49:21;;;;;;;156.75;51.03;;;;;;;-1.56;95.47;100337.88;5051866;28;20400;-81
2023/12/28 03:52:06;;;;;;;137.27;50.78;;;;;;;-1.55;95.17;100340.34;5066193;28;20380;-82
2023/12/28 03:54:51;;;;;;;136.73;52.42;;;;;;;-1.56;95.46;100337.88;5051797;28;20473;-80
2023/12/28 03:57:38;;;;;;;117.53;48.00;;;;;;;-1.57;94.89;100330.97;5080244;28;20052;-80
2023/12/28 04:00:24;;;;;;;109.95;48.97;;;;;;;-1.63;95.84;100337.50;5052460;28;20495;-83
2023/12/28 04:03:10;;;;;;;109.43;49.05;;;;;;;-1.59;94.84;100343.34;5051691;28;20453;-83
2023/12/28 04:05:56;;;;;;;103.47;45.63;;;;;;;-1.69;95.27;100338.03;5059936;28;20055;-81
2023/12/28 04:08:42;;;;;;;110.32;47.97;;;;;;;-1.73;95.24;100339.22;5065329;28;20044;-84
2023/12/28 04:11:27;;;;;;;93.93;39.45;;;;;;;-1.72;94.99;100346.94;5051191;28;20048;-85
2023/12/28 04:14:12;;;;;;;109.15;40.47;;;;;;;-1.91;95.06;100347.56;5051141;28;20051;-84
2023/12/28 04:16:58;;;;;;;166.02;64.22;;;;;;;-1.99;94.54;100349.94;5064754;28;20040;-85
2023/12/28 04:19:44;;;;;;;180.85;67.30;;;;;;;-2.25;95.60;100348.56;5065149;28;20052;-80
2023/12/28 04:22:29;;;;;;;187.90;71.60;;;;;;;-2.32;95.26;100350.78;5051075;28;20051;-83
2023/12/28 04:25:17;;;;;;;207.82;75.25;;;;;;;-2.33;95.50;100352.56;5079514;28;20052;-81
2023/12/28 04:28:03;;;;;;;175.50;71.30;;;;;;;-2.37;95.53;100348.56;5058966;28;20044;-85
2023/12/28 04:30:49;;;;;;;178.40;71.53;;;;;;;-2.30;94.86;100353.28;5050954;28;20048;-81
2023/12/28 04:33:35;;;;;;;237.02;82.38;;;;;;;-2.34;95.73;100350.94;5065776;28;20048;-81
2023/12/28 04:36:21;;;;;;;231.18;87.00;;;;;;;-2.34;95.81;100347.50;5050647;28;20051;-82
2023/12/28 04:39:07;;;;;;;176.30;72.47;;;;;;;-2.24;95.21;100353.66;5051763;28;20044;-82
2023/12/28 04:41:53;;;;;;;219.98;82.00;;;;;;;-2.25;95.58;100357.22;5051321;28;20040;-86
2023/12/28 04:44:39;;;;;;;240.82;95.57;;;;;;;-2.23;95.11;100364.88;5050407;28;20449;-84
2023/12/28 04:47:24;;;;;;;226.95;98.50;;;;;;;-2.16;96.23;100355.66;5050768;28;20052;-81
2023/12/28 04:50:10;;;;;;;278.67;114.20;;;;;;;-2.14;95.46;100369.38;5050140;28;20461;-87
2023/12/28 04:52:56;;;;;;;224.98;98.18;;;;;;;-2.12;95.04;100352.69;5058031;28;20048;-81
2023/12/28 04:55:41;;;;;;;225.50;97.85;;;;;;;-2.03;96.07;100358.97;5042193;28;20040;-84
2023/12/28 04:58:27;;;;;;;183.32;85.22;;;;;;;-1.97;95.76;100361.09;5050991;28;20047;-84
2023/12/28 05:01:12;;;;;;;165.52;78.40;;;;;;;-1.96;95.16;100360.13;5080775;28;20044;-82
2023/12/28 05:03:58;;;;;;;129.15;61.35;;;;;;;-1.95;95.71;100361.75;5071185;28;20377;-84
2023/12/28 05:06:43;;;;;;;96.80;52.28;;;;;;;-1.93;95.90;100353.84;5061811;28;20040;-83
2023/12/28 05:09:29;;;;;;;126.90;56.40;;;;;;;-1.86;95.76;100355.81;5055330;28;20048;-84
2023/12/28 05:12:15;;;;;;;189.15;62.35;;;;;;;-1.89;95.48;100350.84;5050262;28;20048;-85
2023/12/28 05:15:00;;;;;;;188.02;65.00;;;;;;;-1.88;95.86;100347.31;5047811;28;20052;-85
2023/12/28 05:17:46;;;;;;;252.13;76.25;;;;;;;-1.94;95.95;100339.16;5048510;28;20453;-86
2023/12/28 05:20:31;;;;;;;189.20;73.22;;;;;;;-1.87;95.26;100346.38;5045138;28;20052;-82
2023/12/28 05:23:18;;;;;;;190.45;73.07;;;;;;;-1.80;95.68;100340.66;5064906;28;20044;-84
2023/12/28 05:26:04;;;;;;;193.60;80.97;;;;;;;-1.76;95.87;100337.69;5063150;28;20449;-85
2023/12/28 05:28:52;;;;;;;267.20;84.65;;;;;;;-1.82;95.55;100351.19;5063926;28;20047;-85
2023/12/28 05:31:38;;;;;;;303.67;96.18;;;;;;;-1.83;95.26;100352.16;5050143;28;20052;-85
2023/12/28 05:34:23;;;;;;;391.10;116.68;;;;;;;-1.91;95.08;100344.13;5064523;28;20040;-82
2023/12/28 05:37:09;;;;;;;431.92;117.95;;;;;;;-1.92;95.21;100343.28;5050142;28;20048;-83
2023/12/28 05:39:55;;;;;;;417.55;109.80;;;;;;;-1.92;95.38;100332.03;5050233;28;20044;-82
2023/12/28 05:42:40;;;;;;;351.20;109.07;;;;;;;-1.95;94.98;100338.31;5050499;28;20449;-84
2023/12/28 05:45:26;;;;;;;343.27;115.60;;;;;;;-2.06;95.38;100332.31;5050215;28;20044;-84
2023/12/28 05:48:11;;;;;;;297.45;112.60;;;;;;;-2.02;95.08;100336.34;5050028;28;20052;-83
2023/12/28 05:50:58;;;;;;;287.60;103.55;;;;;;;-2.09;95.94;100336.00;5049945;28;20056;-83
2023/12/28 05:53:44;;;;;;;284.63;99.40;;;;;;;-2.10;96.13;100335.16;5043492;28;20044;-83
2023/12/28 05:56:29;;;;;;;285.52;97.32;;;;;;;-2.03;95.18;100330.31;5066335;28;20052;-82
2023/12/28 05:59:21;;;;;;;326.30;106.72;;;;;;;-2.15;95.43;100326.06;5043733;28;20465;-79
2023/12/28 06:02:17;;;;;;;242.38;95.13;;;;;;;-2.08;95.19;100336.81;5043809;28;20458;-83
2023/12/28 06:05:06;;;;;;;416.05;123.97;;;;;;;-2.10;95.74;100331.72;5055346;28;20056;-84
2023/12/28 06:07:52;;;;;;;336.58;110.07;;;;;;;-2.03;96.11;100340.72;5057550;28;20465;-84
2023/12/28 06:10:38;;;;;;;372.52;120.50;;;;;;;-2.12;95.56;100331.03;5056766;28;20045;-85
2023/12/28 06:13:24;;;;;;;294.05;107.18;;;;;;;-2.03;96.48;100329.47;5044360;28;20049;-84
2023/12/28 06:16:10;;;;;;;255.80;89.70;;;;;;;-2.12;96.12;100336.22;5029664;28;20453;-85
2023/12/28 06:18:56;;;;;;;173.65;75.40;;;;;;;-2.09;95.98;100330.78;5030219;28;20400;-83
2023/12/28 06:21:43;;;;;;;225.13;71.22;;;;;;;-2.16;95.34;100325.25;5043719;28;20453;-83
2023/12/28 06:24:28;;;;;;;166.70;62.22;;;;;;;-2.13;96.20;100330.19;5058669;28;20048;-85
2023/12/28 06:27:13;;;;;;;163.05;73.22;;;;;;;-2.03;95.38;100330.31;5065611;28;20045;-87
2023/12/28 06:30:00;;;;;;;152.63;58.85;;;;;;;-2.02;95.36;100326.72;5038195;28;20048;-84
2023/12/28 06:32:46;;;;;;;190.68;61.08;;;;;;;-2.04;95.82;100336.44;5066239;28;20377;-85
2023/12/28 06:35:31;;;;;;;194.23;65.55;;;;;;;-1.96;95.57;100347.09;5065820;28;20079;-85
2023/12/28 06:38:17;;;;;;;161.70;63.22;;;;;;;-2.01;95.50;100348.41;5049902;28;20424;-86
2023/12/28 06:41:10;;;;;;;260.15;101.35;;;;;;;-2.18;95.38;100347.97;5065248;28;20461;-84
2023/12/28 06:43:56;;;;;;;308.85;143.23;;;;;;;-2.09;95.72;100362.03;5065213;28;20048;-84
2023/12/28 06:46:42;;;;;;;347.15;132.90;;;;;;;-2.15;95.80;100354.72;5060610;28;20397;-83
2023/12/28 06:49:27;;;;;;;248.68;100.53;;;;;;;-2.47;95.42;100363.25;5061189;28;20450;-83
2023/12/28 06:52:13;;;;;;;271.23;110.28;;;;;;;-2.53;95.91;100363.72;5047177;28;20040;-87
2023/12/28 06:54:59;;;;;;;323.17;120.22;;;;;;;-2.58;95.27;100360.63;5047340;28;20044;-86
2023/12/28 06:57:46;;;;;;;255.90;112.65;;;;;;;-2.34;95.27;100371.75;5062278;28;20405;-82
2023/12/28 07:00:31;;;;;;;381.35;141.27;;;;;;;-2.15;96.31;100372.94;5035428;28;20057;-86
2023/12/28 07:03:19;;;;;;;356.92;141.65;;;;;;;-1.92;95.74;100369.34;5071669;28;20411;-84
2023/12/28 07:06:05;;;;;;;287.30;132.18;;;;;;;-1.86;95.40;100366.25;5067317;28;20052;-86
2023/12/28 07:08:51;;;;;;;268.95;121.93;;;;;;;-2.06;95.78;100358.38;5036829;28;20048;-83
2023/12/28 07:11:36;;;;;;;287.45;123.10;;;;;;;-2.14;95.63;100362.38;5055313;28;20041;-83
2023/12/28 07:14:21;;;;;;;323.40;131.55;;;;;;;-2.02;95.73;100367.59;5062013;28;20474;-84
2023/12/28 07:17:07;;;;;;;263.33;125.88;;;;;;;-1.80;95.76;100356.31;5046390;28;20401;-87
2023/12/28 07:19:53;;;;;;;370.20;145.00;;;;;;;-1.74;95.39;100363.63;5060555;28;20048;-82
2023/12/28 07:22:40;;;;;;;335.67;140.98;;;;;;;-1.56;95.82;100353.50;5060193;28;20052;-86
2023/12/28 07:25:38;;;;;;;340.13;139.35;;;;;;;-1.63;96.09;100356.63;5059944;28;20427;-85
2023/12/28 07:28:23;;;;;;;360.10;145.60;;;;;;;-1.51;95.68;100360.00;5048099;28;20395;-84
2023/12/28 07:31:09;;;;;;;273.67;123.60;;;;;;;-1.41;95.55;100363.53;5062159;28;20044;-86
2023/12/28 07:33:54;;;;;;;288.60;118.03;;;;;;;-1.33;95.25;100349.03;5047773;28;20052;-86
2023/12/28 07:36:43;;;;;;;307.27;123.55;;;;;;;-1.46;95.56;100359.63;5033676;28;20450;-83
2023/12/28 07:39:38;;;;;;;305.08;120.28;;;;;;;-1.44;95.06;100355.94;5047485;28;20044;-85
2023/12/28 07:42:23;;;;;;;219.52;105.93;;;;;;;-1.30;94.75;100364.41;5059807;28;20044;-87
2023/12/28 07:45:09;;;;;;;358.33;146.35;;;;;;;-1.47;94.93;100364.03;5045843;28;20052;-84
2023/12/28 07:47:54;;;;;;;314.83;121.68;;;;;;;-1.47;94.59;100345.78;5032488;28;20389;-85
2023/12/28 07:50:39;;;;;;;205.70;81.75;;;;;;;-1.71;95.21;100356.38;5046905;28;20048;-86
2023/12/28 07:53:24;;;;;;;215.38;88.82;;;;;;;-1.60;95.28;100363.34;5038938;28;20469;-85
2023/12/28 07:56:11;;;;;;;217.27;84.70;;;;;;;-1.64;95.04;100362.75;5032375;28;20052;-83
2023/12/28 07:58:57;;;;;;;184.18;71.80;;;;;;;-1.51;95.24;100367.81;5059898;28;20424;-85
2023/12/28 08:01:43;;;;;;;196.77;77.18;;;;;;;-1.48;94.72;100377.16;5045844;28;20454;-81
2023/12/28 08:04:28;;;;;;;252.18;94.40;;;;;;;-1.31;95.05;100362.78;5057979;28;20045;-84
2023/12/28 08:07:13;;;;;;;207.50;87.32;;;;;;;-1.25;94.55;100363.09;5038241;28;20406;-83
2023/12/28 08:09:59;;;;;;;210.63;84.90;;;;;;;-1.06;94.56;100365.03;5047324;28;20453;-82
2023/12/28 08:12:45;;;;;;;174.50;79.20;;;;;;;-0.80;94.40;100368.06;5074978;28;20469;-82
2023/12/28 08:15:30;;;;;;;218.00;101.65;;;;;;;-0.75;93.55;100365.09;5060592;28;20048;-85
2023/12/28 08:18:16;;;;;;;214.68;96.82;;;;;;;-0.60;94.14;100360.34;5074632;28;20070;-84
2023/12/28 08:21:02;;;;;;;200.27;83.50;;;;;;;-0.57;93.49;100353.06;5051577;28;20397;-83
2023/12/28 08:23:48;;;;;;;168.45;73.35;;;;;;;-0.58;93.14;100346.19;5062485;28;20053;-85
2023/12/28 08:26:34;;;;;;;192.60;73.40;;;;;;;-0.40;93.54;100353.44;5079804;28;20048;-84
2023/12/28 08:29:20;;;;;;;186.63;66.78;;;;;;;-0.40;92.45;100354.25;5068268;28;20481;-83
2023/12/28 08:32:06;;;;;;;189.27;76.18;;;;;;;-0.29;91.84;100348.09;5066357;28;20044;-83
2023/12/28 08:34:53;;;;;;;199.60;80.28;;;;;;;-0.15;91.97;100360.00;5071168;28;20450;-83
2023/12/28 08:37:40;;;;;;;214.85;76.10;;;;;;;-0.05;91.54;100364.28;5065546;28;20052;-84
2023/12/28 08:40:26;;;;;;;211.23;77.53;;;;;;;0.12;91.38;100364.59;5053097;28;20048;-85
2023/12/28 08:43:19;;;;;;;239.57;88.35;;;;;;;0.12;91.24;100362.78;5065731;28;20055;-85
2023/12/28 08:46:08;;;;;;;177.73;80.57;;;;;;;-0.09;91.79;100373.34;5067119;28;20048;-86
2023/12/28 08:48:54;;;;;;;218.80;94.90;;;;;;;-0.02;92.17;100379.69;5064652;28;20397;-84
2023/12/28 08:51:41;;;;;;;239.07;103.75;;;;;;;0.09;91.69;100381.34;5063248;28;20458;-84
2023/12/28 08:54:30;;;;;;;268.50;116.93;;;;;;;0.43;91.70;100378.41;5035622;28;20048;-85
2023/12/28 08:57:17;;;;;;;289.05;123.80;;;;;;;0.66;91.28;100377.19;5046216;28;20044;-84
2023/12/28 09:00:05;;;;;;;238.75;101.85;;;;;;;0.09;90.68;100370.06;5062830;28;20060;-84
2023/12/28 09:02:52;;;;;;;275.83;113.75;;;;;;;0.34;90.84;100364.34;5058182;28;20048;-82
2023/12/28 09:05:38;;;;;;;245.43;114.57;;;;;;;0.52;90.26;100367.13;5066533;28;20044;-85
2023/12/28 09:08:24;;;;;;;282.35;132.02;;;;;;;0.74;89.59;100358.16;5065982;28;20385;-84
2023/12/28 09:11:14;;;;;;;336.23;143.07;;;;;;;0.94;90.28;100353.75;5061988;28;20044;-85
2023/12/28 09:14:00;;;;;;;312.20;142.25;;;;;;;1.05;90.05;100348.34;5062865;28;20041;-83
2023/12/28 09:16:46;;;;;;;277.80;127.72;;;;;;;1.15;89.38;100343.09;5062444;28;20052;-84
2023/12/28 09:19:32;;;;;;;263.73;121.50;;;;;;;1.33;89.23;100356.28;5064384;28;20044;-82
2023/12/28 09:22:18;;;;;;;279.40;129.70;;;;;;;1.35;88.90;100336.03;5060091;28;20449;-82
2023/12/28 09:25:04;;;;;;;267.77;126.15;;;;;;;1.46;89.26;100338.47;5058995;28;20040;-85
2023/12/28 09:27:51;;;;;;;271.90;124.68;;;;;;;1.44;88.88;100329.09;5059099;28;20041;-85
2023/12/28 09:30:37;;;;;;;291.13;135.65;;;;;;;1.64;88.63;100327.22;5045516;28;20040;-86
2023/12/28 09:33:24;;;;;;;309.58;138.23;;;;;;;1.71;87.89;100329.13;5045301;28;20454;-86
2023/12/28 09:36:12;;;;;;;284.42;133.10;;;;;;;1.74;88.36;100312.28;5062983;28;20445;-83
2023/12/28 09:38:58;;;;;;;298.95;134.15;;;;;;;1.89;88.08;100310.81;5061066;28;20032;-82
2023/12/28 09:41:49;;;;;;;316.08;146.88;;;;;;;2.13;88.15;100310.25;5047624;28;20076;-82
2023/12/28 09:44:37;;;;;;;297.10;150.18;;;;;;;2.25;87.37;100309.06;5060346;28;20041;-82
2023/12/28 09:47:23;;;;;;;255.85;127.32;;;;;;;2.31;87.29;100294.50;5059513;28;20037;-85
2023/12/28 09:50:08;;;;;;;266.90;130.50;;;;;;;2.66;87.15;100293.66;5059842;28;20397;-83
2023/12/28 09:52:55;;;;;;;274.67;131.70;;;;;;;2.66;86.40;100280.53;5031298;28;20048;-85
2023/12/28 09:55:41;;;;;;;242.38;120.75;;;;;;;2.51;86.08;100279.47;5058647;28;20052;-84
2023/12/28 09:58:29;;;;;;;255.73;126.82;;;;;;;2.71;86.62;100275.66;5044760;28;20397;-85
2023/12/28 10:01:16;;;;;;;256.83;127.22;;;;;;;2.58;86.16;100264.75;5063272;28;20048;-85
2023/12/28 10:07:23;;;;;;;248.32;128.05;;;;;;;2.88;86.32;100270.53;5062287;28;20052;-84
2023/12/28 10:10:09;;;;;;;189.38;91.80;;;;;;;2.98;86.35;100258.94;5048236;28;20049;-86
2023/12/28 10:12:56;;;;;;;228.25;112.18;;;;;;;3.16;86.57;100266.75;5061766;28;20048;-86
2023/12/28 10:15:43;;;;;;;214.50;110.05;;;;;;;3.34;86.72;100250.09;5048436;28;20052;-83
2023/12/28 10:18:29;;;;;;;217.50;109.70;;;;;;;3.74;86.33;100244.16;5041888;28;20373;-86
2023/12/28 10:21:14;;;;;;;202.98;105.47;;;;;;;3.71;85.26;100241.84;5062481;28;20041;-83
2023/12/28 10:24:00;;;;;;;215.55;112.22;;;;;;;4.04;84.85;100247.16;5062375;28;20450;-82
2023/12/28 10:26:45;;;;;;;204.90;109.57;;;;;;;4.21;84.07;100219.09;5046768;28;20048;-84
2023/12/28 10:29:31;;;;;;;147.00;75.30;;;;;;;4.19;82.16;100219.25;5061702;28;20052;-82
2023/12/28 10:32:17;;;;;;;148.73;73.65;;;;;;;4.12;82.17;100219.06;5047509;28;20052;-83
2023/12/28 10:35:03;;;;;;;147.90;75.00;;;;;;;4.36;81.65;100220.09;5061384;28;20455;-86
2023/12/28 10:37:52;;;;;;;157.65;80.80;;;;;;;4.41;81.63;100207.22;5047779;28;20048;-88
2023/12/28 10:40:39;;;;;;;163.82;84.78;;;;;;;4.77;82.78;100198.97;5061034;28;20052;-84
2023/12/28 10:43:26;;;;;;;165.63;84.40;;;;;;;5.00;81.20;100194.59;5033936;28;20047;-86
2023/12/28 10:46:27;;;;;;;166.18;86.18;;;;;;;5.22;80.65;100190.41;5061387;28;20071;-84
2023/12/28 10:49:16;;;;;;;158.77;83.68;;;;;;;5.31;78.76;100178.03;5047256;28;20036;-84
2023/12/28 10:52:04;;;;;;;167.15;82.82;;;;;;;5.44;78.75;100183.56;5033376;28;20052;-87
2023/12/28 10:55:00;;;;;;;124.82;64.82;;;;;;;5.54;78.22;100173.59;5040696;28;20055;-82
2023/12/28 10:58:26;;;;;;;121.80;62.53;;;;;;;5.73;77.89;100159.16;5062878;28;20425;-83
2023/12/28 11:01:12;;;;;;;137.45;68.68;;;;;;;5.84;77.21;100160.56;5061315;28;20044;-84
2023/12/28 11:04:08;;;;;;;129.98;70.03;;;;;;;5.94;77.11;100157.72;5080912;28;20401;-84
2023/12/28 11:06:53;;;;;;;121.55;62.58;;;;;;;5.98;76.75;100148.44;5047874;28;20409;-83
2023/12/28 11:09:41;;;;;;;96.25;49.90;;;;;;;5.85;76.29;100142.94;5048559;28;20055;-83
2023/12/28 11:12:27;;;;;;;120.00;55.50;;;;;;;6.04;75.83;100137.19;5049227;28;20068;-82
2023/12/28 11:15:14;;;;;;;115.10;60.78;;;;;;;6.22;75.73;100134.25;5062680;28;20044;-83
2023/12/28 11:18:01;;;;;;;119.22;57.67;;;;;;;6.36;74.71;100125.53;5034843;28;20040;-79
2023/12/28 11:20:46;;;;;;;110.80;55.75;;;;;;;6.48;74.12;100118.78;5062222;28;20397;-84
2023/12/28 11:23:32;;;;;;;106.15;53.70;;;;;;;6.62;74.83;100117.16;5062385;28;20048;-86
2023/12/28 11:26:21;;;;;;;114.00;57.15;;;;;;;6.72;74.42;100108.97;5047743;28;20449;-83
2023/12/28 11:29:06;;;;;;;95.53;49.75;;;;;;;6.83;73.51;100102.41;5048721;28;20401;-84
2023/12/28 11:31:57;;;;;;;95.78;50.08;;;;;;;6.97;73.26;100101.56;5034019;28;20068;-84
2023/12/28 11:34:42;;;;;;;93.63;47.75;;;;;;;7.10;72.89;100104.38;5047568;28;20055;-83
2023/12/28 11:37:29;;;;;;;92.18;46.13;;;;;;;7.20;71.94;100096.13;5056935;28;20393;-82
2023/12/28 11:40:21;;;;;;;91.97;46.95;;;;;;;7.05;71.56;100090.06;5077174;28;20067;-85
2023/12/28 11:43:18;;;;;;;93.68;44.08;;;;;;;7.11;70.66;100084.88;5036781;28;20059;-83
2023/12/28 11:46:05;;;;;;;86.47;46.80;;;;;;;7.09;71.31;100078.94;5045815;28;20404;-83
2023/12/28 11:48:51;;;;;;;106.13;53.70;;;;;;;7.29;71.05;100089.72;5052232;28;20369;-83
2023/12/28 11:51:40;;;;;;;92.10;47.60;;;;;;;7.25;70.20;100082.38;5044787;28;20044;-87
2023/12/28 11:54:28;;;;;;;114.68;60.15;;;;;;;7.40;71.22;100081.31;5032817;28;20409;-84
2023/12/28 11:57:15;;;;;;;137.90;67.25;;;;;;;7.55;71.34;100078.63;5046918;28;20049;-82
2023/12/28 12:00:02;;;;;;;124.95;65.07;;;;;;;7.65;71.83;100070.38;5047015;28;20486;-86
2023/12/28 12:02:50;;;;;;;122.97;65.55;;;;;;;7.73;71.50;100075.50;5060103;28;20071;-82
2023/12/28 12:05:37;;;;;;;107.85;57.00;;;;;;;7.84;71.23;100075.00;5041050;28;20052;-83
2023/12/28 12:08:23;;;;;;;123.03;62.20;;;;;;;7.93;70.74;100059.81;5033582;28;20048;-83
2023/12/28 12:11:09;;;;;;;111.07;59.78;;;;;;;8.07;71.05;100050.13;5048771;28;20058;-82
2023/12/28 12:13:55;;;;;;;117.45;56.15;;;;;;;8.20;70.02;100055.50;5051808;28;20048;-84
2023/12/28 12:16:41;;;;;;;112.68;59.88;;;;;;;8.28;69.90;100052.72;5079402;28;20048;-86
2023/12/28 12:19:27;;;;;;;120.05;61.78;;;;;;;8.37;69.83;100050.75;5068846;28;20055;-86
2023/12/28 12:22:13;;;;;;;103.00;57.20;;;;;;;8.39;68.98;100047.91;5058301;28;20048;-84
2023/12/28 12:25:03;;;;;;;104.20;59.42;;;;;;;8.49;68.78;100045.72;5051238;28;20040;-83
2023/12/28 12:27:49;;;;;;;117.40;61.15;;;;;;;8.50;69.12;100042.09;5045717;28;20488;-82
2023/12/28 12:30:35;;;;;;;107.70;60.75;;;;;;;8.53;68.28;100039.03;5042943;28;20409;-82
2023/12/28 12:33:21;;;;;;;118.57;62.92;;;;;;;8.58;67.59;100042.72;5074546;28;20048;-85